Littleton, CO (80127)

10:03 PM MST on December 28, 2014 (GMT -0700)
Mill Hollow | Change Station
CLOSE
Current Station
Personal Weather Station
Location: Littleton, CO
Elevation: 7125 ft
Nearby Weather Stations

Elev 7125 ft 39.52 °N, 105.16 °W | Updated 12 minutes ago

Overcast
Overcast
15.4 °F
Feels Like 9 °F
N
4.0
Wind Variable Wind from SSW
Gusts 6.0 mph

Today
High -- | Low -- °F
--% Chance of Precip.
Yesterday
High -- | Low -- °F
Precip. -- in
7:20 AM 4:44 PM
First Quarter, 55% visible
Pressure 30.10 in
Visibility 10.0 miles
Clouds Mostly Cloudy 8000 ft
Mostly Cloudy 11000 ft
Windchill 9 °F
Dew Point 11 °F
Humidity 82%
Rainfall 0.00 in
Snow Depth Not available.
UV 0 out of 12
Pollen .10 out of 12
Air Quality Not available.
Flu Activity Not available.
METAR KAPA 290453Z 19003KT 10SM BKN080 BKN110 M08/M13 A2992 RMK AO2 SLP193 T10831128

More Conditions Fewer Conditions

Pressure 30.10 in
Visibility 10.0 miles
Clouds Mostly Cloudy 8000 ft
Mostly Cloudy 11000 ft
Windchill 9 °F
Dew Point 11 °F
Humidity 82%
Rainfall 0.00 in
Snow Depth Not available.
UV 0 out of 12
Pollen .10 out of 12
Air Quality Not available.
Flu Activity Not available.
METAR KAPA 290453Z 19003KT 10SM BKN080 BKN110 M08/M13 A2992 RMK AO2 SLP193 T10831128

More Conditions Fewer Conditions

10-Day Weather Forecast

Almanac

Astronomy

Dec. 28, 2014 Rise Set
Actual Time
Civil Twilight
Nautical Twilight
Astronomical Twilight
Moon
Length of Visible Light
Length of Day
Tomorrow will be .
, % of the Moon is Illuminated

Today's Extremes

State Highs State Lows

Community

WunderPhotos

Upload Photos

1,781,529 photos uploaded!

WunderBlogs® & News

Nearby

Air Quality

  Air Quality AQ Index Pollutant
Not available.

Snow Depth

Station Depth Elevation

Earthquake Activity

City Distance Mag. Time & Date
Minimum magnitude displayed is 2.5.

Coastal Water Temperatures

Place Temperature

Nearby Weather Stations